Time;durP1;ratioP1;P1;durP2;ratioP2;P2;SDS_P1;SDS_P2;PMS_P1;PMS_P2;Temp;Humidity;BMP_temperature;BMP_pressure;BME280_temperature;BME280_humidity;BME280_pressure;Samples;Min_cycle;Max_cycle;Signal;HPM_P1;HPM_P2
2024/02/14 00:00:03;;;;;;;14.52;9.60;;;;;;;-145.63;53.36;38856.06;5051487;28;20486;-65
2024/02/14 00:02:33;;;;;;;12.30;8.50;;;;;;;-145.63;53.47;38863.88;5053804;28;20021;-65
2024/02/14 00:04:59;;;;;;;15.25;9.05;;;;;;;-145.63;53.65;38820.88;5043549;28;20025;-64
2024/02/14 00:07:26;;;;;;;12.82;7.80;;;;;;;-145.63;53.92;38815.00;5037745;28;20481;-64
2024/02/14 00:09:52;;;;;;;12.40;7.95;;;;;;;-145.63;54.08;38828.69;5051964;28;20037;-64
2024/02/14 00:12:18;;;;;;;14.20;8.15;;;;;;;-145.63;54.21;38828.69;5033521;28;20048;-63
2024/02/14 00:14:43;;;;;;;13.30;8.35;;;;;;;-145.63;54.29;38828.69;5017780;28;20415;-64
2024/02/14 00:17:10;;;;;;;14.10;8.43;;;;;;;-145.63;54.02;38840.44;5023958;28;20025;-64
2024/02/14 00:19:36;;;;;;;15.05;8.75;;;;;;;-145.63;54.36;38842.38;5033100;28;20025;-65
2024/02/14 00:22:01;;;;;;;12.45;7.85;;;;;;;-145.63;54.59;38834.56;5032627;28;20037;-65
2024/02/14 00:24:29;;;;;;;11.93;8.50;;;;;;;-145.63;54.19;38856.06;5032827;28;20067;-64
2024/02/14 00:26:56;;;;;;;12.65;8.25;;;;;;;-145.63;54.19;38799.34;5014998;28;20034;-66
2024/02/14 00:29:24;;;;;;;14.23;9.18;;;;;;;-145.63;54.23;38852.16;5024330;28;20471;-65
2024/02/14 00:31:50;;;;;;;11.77;7.60;;;;;;;-145.63;54.06;38816.97;5024785;28;20050;-65
2024/02/14 00:34:24;;;;;;;14.20;8.48;;;;;;;-145.63;54.42;38826.72;5022436;28;20033;-65
2024/02/14 00:36:50;;;;;;;14.60;8.85;;;;;;;-145.63;54.57;38828.69;5052451;28;20527;-64
2024/02/14 00:39:16;;;;;;;11.13;8.02;;;;;;;-145.63;54.08;38828.69;5032926;28;20033;-65
2024/02/14 00:41:41;;;;;;;11.65;8.05;;;;;;;-145.63;54.17;38830.66;5032037;28;20463;-65
2024/02/14 00:44:07;;;;;;;14.43;8.52;;;;;;;-145.63;54.71;38813.03;5032827;28;20064;-65
2024/02/14 00:46:33;;;;;;;13.05;8.52;;;;;;;-145.63;54.53;38826.72;5027047;28;20041;-64
2024/02/14 00:48:59;;;;;;;13.23;8.05;;;;;;;-145.63;54.16;38840.44;5014791;28;20061;-64
2024/02/14 00:51:25;;;;;;;14.07;8.27;;;;;;;-145.63;54.19;38836.50;5034547;28;20083;-65
2024/02/14 00:53:52;;;;;;;14.75;9.07;;;;;;;-145.63;53.93;38815.00;5016204;28;20034;-63
2024/02/14 00:56:18;;;;;;;12.63;8.32;;;;;;;-145.63;54.21;38811.09;5026959;28;20073;-64
2024/02/14 00:58:43;;;;;;;13.52;8.30;;;;;;;-145.63;54.32;38836.50;5029200;28;20056;-65
2024/02/14 01:01:09;;;;;;;13.27;8.30;;;;;;;-145.63;54.25;38836.50;5020865;28;20159;-65
2024/02/14 01:03:36;;;;;;;14.50;8.40;;;;;;;-145.63;54.24;38811.09;5056756;28;20066;-64
2024/02/14 01:06:02;;;;;;;12.30;8.25;;;;;;;-145.63;54.07;38813.03;5038252;28;20041;-64
2024/02/14 01:08:28;;;;;;;11.60;7.85;;;;;;;-145.63;54.29;38811.09;5023166;28;20455;-65
2024/02/14 01:10:54;;;;;;;11.95;8.40;;;;;;;-145.63;54.19;38838.47;5032785;28;20154;-64
2024/02/14 01:13:19;;;;;;;13.48;8.57;;;;;;;-145.63;54.34;38803.28;5055673;28;20032;-64
2024/02/14 01:15:45;;;;;;;11.38;8.05;;;;;;;-145.63;54.49;38838.47;5049390;28;20029;-63
2024/02/14 01:18:11;;;;;;;11.95;8.30;;;;;;;-145.63;54.28;38824.78;5034641;28;20113;-64
2024/02/14 01:20:37;;;;;;;12.20;7.57;;;;;;;-145.63;54.45;38807.19;5035930;28;20446;-64
2024/02/14 01:23:03;;;;;;;12.18;8.20;;;;;;;-145.63;54.59;38801.31;5026162;28;20116;-68
2024/02/14 01:25:34;;;;;;;13.90;8.50;;;;;;;-145.63;54.44;38813.03;5020168;28;20112;-63
2024/02/14 01:28:00;;;;;;;11.90;8.00;;;;;;;-145.63;54.24;38822.81;5034983;28;20594;-63
2024/02/14 01:30:26;;;;;;;13.40;8.52;;;;;;;-145.63;54.07;38856.06;5016204;28;20132;-64
2024/02/14 01:32:53;;;;;;;11.95;8.10;;;;;;;-145.63;54.19;38803.28;5031730;28;20038;-64
2024/02/14 01:35:18;;;;;;;13.18;7.90;;;;;;;-145.63;54.09;38791.53;5024569;28;20048;-64
2024/02/14 01:37:45;;;;;;;12.15;7.80;;;;;;;-145.63;54.42;38793.50;5022523;28;20120;-64
2024/02/14 01:40:11;;;;;;;13.63;8.52;;;;;;;-145.63;54.21;38803.28;5032414;28;20336;-63
2024/02/14 01:42:55;;;;;;;11.70;8.18;;;;;;;-145.63;54.34;38795.44;5016244;28;20022;-64
2024/02/14 01:45:21;;;;;;;13.40;8.50;;;;;;;-145.63;54.36;38811.09;5055482;28;20033;-65
2024/02/14 01:47:58;;;;;;;13.60;8.18;;;;;;;-145.63;54.76;38805.22;5038897;28;20025;-63
2024/02/14 01:50:29;;;;;;;15.43;8.75;;;;;;;-145.63;54.39;38815.00;5033755;28;20541;-64
2024/02/14 01:52:59;;;;;;;13.30;8.93;;;;;;;-145.63;54.13;38846.28;5035827;28;20026;-62
2024/02/14 01:55:26;;;;;;;11.52;8.30;;;;;;;-145.63;54.59;38822.81;5035928;28;20025;-66
2024/02/14 01:57:53;;;;;;;10.50;7.72;;;;;;;-145.63;54.28;38826.72;5034653;28;20044;-63
2024/02/14 02:00:19;;;;;;;12.98;8.30;;;;;;;-145.63;54.57;38779.81;5035399;28;20032;-65
2024/02/14 02:02:46;;;;;;;13.52;8.02;;;;;;;-145.63;54.19;38809.13;5020365;28;20030;-64
2024/02/14 02:05:13;;;;;;;13.13;8.20;;;;;;;-145.63;54.46;38811.09;5025754;28;20033;-64
2024/02/14 02:07:42;;;;;;;13.68;8.35;;;;;;;-145.63;54.03;38789.59;5033335;28;20123;-63
2024/02/14 02:10:11;;;;;;;12.05;8.75;;;;;;;-145.63;53.96;38824.78;5053148;28;20486;-66
2024/02/14 02:12:41;;;;;;;11.88;7.93;;;;;;;-145.63;53.48;38801.31;5034985;28;20033;-63
2024/02/14 02:15:28;;;;;;;11.75;7.43;;;;;;;-145.63;53.74;38809.13;5015187;28;20038;-64
2024/02/14 02:18:14;;;;;;;13.60;8.02;;;;;;;-145.63;54.21;38809.13;5032415;28;20045;-63
2024/02/14 02:21:03;;;;;;;17.42;8.73;;;;;;;-145.63;53.96;38793.50;5016756;28;20038;-64
2024/02/14 02:23:30;;;;;;;12.43;8.57;;;;;;;-145.63;53.54;38801.31;5027772;28;20053;-65
2024/02/14 02:25:56;;;;;;;15.23;8.93;;;;;;;-145.63;53.67;38787.63;5034872;28;20123;-64
2024/02/14 02:28:42;;;;;;;15.00;8.65;;;;;;;-145.63;53.57;38826.72;5044208;28;20030;-65
2024/02/14 02:31:09;;;;;;;15.40;8.68;;;;;;;-145.63;53.06;38811.09;5049882;28;20137;-64
2024/02/14 02:33:37;;;;;;;14.25;8.95;;;;;;;-145.63;52.79;38803.28;5029039;28;20057;-63
2024/02/14 02:36:03;;;;;;;14.82;8.80;;;;;;;-145.63;53.41;38781.75;5022314;28;20075;-65
2024/02/14 02:38:49;;;;;;;13.23;8.90;;;;;;;-145.63;53.01;38816.97;5023610;28;20044;-65
2024/02/14 02:41:35;;;;;;;13.43;8.50;;;;;;;-145.63;53.32;38791.53;5056476;28;20033;-64
2024/02/14 02:44:19;;;;;;;14.35;8.93;;;;;;;-145.63;53.50;38793.50;5064626;28;20059;-64
2024/02/14 02:47:03;;;;;;;13.68;8.75;;;;;;;-145.63;53.17;38787.63;5042208;28;20036;-64
2024/02/14 02:49:49;;;;;;;16.45;11.10;;;;;;;-145.63;53.95;38813.03;5019391;28;20026;-64
2024/02/14 02:52:35;;;;;;;15.93;9.23;;;;;;;-145.63;53.99;38793.50;5034686;28;20367;-65
2024/02/14 02:55:21;;;;;;;16.42;9.27;;;;;;;-145.63;53.88;38805.22;5018074;28;20108;-64
2024/02/14 02:57:58;;;;;;;15.15;8.88;;;;;;;-145.63;54.40;38801.31;5019189;28;20033;-65
2024/02/14 03:00:24;;;;;;;14.32;9.05;;;;;;;-145.63;54.31;38805.22;5043603;28;20037;-65
2024/02/14 03:03:08;;;;;;;14.13;8.32;;;;;;;-145.63;54.48;38785.66;5048071;28;20037;-65
2024/02/14 03:05:55;;;;;;;13.45;8.93;;;;;;;-145.63;54.46;38760.25;5028877;28;20084;-64
2024/02/14 03:08:40;;;;;;;15.43;9.80;;;;;;;-145.63;54.85;38779.81;5013500;28;20033;-64
2024/02/14 03:11:27;;;;;;;15.35;8.65;;;;;;;-145.63;54.67;38779.81;5015187;28;20120;-64
2024/02/14 03:14:13;;;;;;;14.35;8.98;;;;;;;-145.63;54.89;38785.66;5032865;28;20124;-64
2024/02/14 03:17:03;;;;;;;13.18;8.73;;;;;;;-145.63;54.49;38773.94;5027099;28;20125;-64
2024/02/14 03:19:29;;;;;;;14.68;8.55;;;;;;;-145.63;54.01;38783.72;5031681;28;20115;-65
2024/02/14 03:21:55;;;;;;;14.65;8.45;;;;;;;-145.63;54.51;38799.34;5021579;28;20085;-64
2024/02/14 03:24:22;;;;;;;12.15;8.40;;;;;;;-145.63;54.92;38777.84;5022540;28;20114;-64
2024/02/14 03:26:50;;;;;;;11.10;7.88;;;;;;;-145.63;55.02;38777.84;5030880;28;20115;-64
2024/02/14 03:29:16;;;;;;;12.95;8.80;;;;;;;-145.63;54.63;38824.78;5014027;28;20108;-65
2024/02/14 03:31:43;;;;;;;12.40;8.82;;;;;;;-145.63;54.15;38795.44;5032663;28;20049;-64
2024/02/14 03:34:10;;;;;;;12.50;8.45;;;;;;;-145.63;53.50;38771.97;5048907;28;20111;-63
2024/02/14 03:36:39;;;;;;;12.60;8.40;;;;;;;-145.63;54.13;38770.03;5044287;28;20030;-64
2024/02/14 03:39:05;;;;;;;14.85;8.98;;;;;;;-145.63;54.00;38768.06;5029391;28;20042;-64
2024/02/14 03:41:31;;;;;;;15.10;8.45;;;;;;;-145.63;53.58;38766.13;5015059;28;20034;-63
2024/02/14 03:44:03;;;;;;;14.60;8.20;;;;;;;-145.63;53.74;38779.81;5033419;28;20057;-64
2024/02/14 03:46:28;;;;;;;12.80;8.80;;;;;;;-145.63;53.60;38809.13;5016251;28;20045;-65
2024/02/14 03:48:54;;;;;;;15.15;8.80;;;;;;;-145.63;53.38;38797.41;5026694;28;20029;-65
2024/02/14 03:51:23;;;;;;;11.70;8.25;;;;;;;-145.63;53.43;38725.06;5033543;28;20087;-66
2024/02/14 03:53:48;;;;;;;15.63;8.75;;;;;;;-145.63;53.18;38781.75;5030032;28;20091;-65
2024/02/14 03:56:16;;;;;;;12.55;8.63;;;;;;;-145.63;53.54;38758.28;5013674;28;20384;-65
2024/02/14 03:58:42;;;;;;;14.70;9.18;;;;;;;-145.63;53.36;38775.91;5032250;28;20030;-67
2024/02/14 04:01:08;;;;;;;16.23;8.88;;;;;;;-145.63;53.23;38781.75;5031760;28;20079;-64
2024/02/14 04:03:34;;;;;;;14.50;9.52;;;;;;;-145.63;53.92;38770.03;5025443;28;20384;-63
2024/02/14 04:06:00;;;;;;;16.35;9.75;;;;;;;-145.63;54.00;38770.03;5018022;28;20068;-64
2024/02/14 04:08:26;;;;;;;15.27;10.25;;;;;;;-145.63;53.77;38781.75;5033341;28;20398;-65
2024/02/14 04:10:54;;;;;;;15.25;10.15;;;;;;;-145.63;53.44;38766.13;5013292;28;20042;-64
2024/02/14 04:13:20;;;;;;;16.15;10.77;;;;;;;-145.63;54.47;38754.38;5028749;28;20026;-65
2024/02/14 04:15:47;;;;;;;16.08;10.63;;;;;;;-145.63;54.12;38783.72;5021860;28;20033;-64
2024/02/14 04:18:30;;;;;;;16.73;11.27;;;;;;;-145.63;54.04;38766.13;5022568;28;20030;-64
2024/02/14 04:20:56;;;;;;;18.05;11.63;;;;;;;-145.63;53.89;38773.94;5028625;28;20121;-64
2024/02/14 04:23:22;;;;;;;18.17;10.82;;;;;;;-145.63;54.25;38754.38;5013644;28;20084;-63
2024/02/14 04:25:48;;;;;;;18.63;12.00;;;;;;;-145.63;53.93;38756.34;5031634;28;20052;-64
2024/02/14 04:28:14;;;;;;;16.30;11.02;;;;;;;-145.63;54.33;38768.06;5023343;28;20421;-63
2024/02/14 04:30:41;;;;;;;16.45;10.63;;;;;;;-145.63;54.57;38758.28;5034819;28;20045;-63
2024/02/14 04:33:24;;;;;;;19.23;11.88;;;;;;;-145.63;54.25;38758.28;5030869;28;20035;-64
2024/02/14 04:35:50;;;;;;;18.02;11.45;;;;;;;-145.63;54.29;38754.38;5038762;28;20116;-66
2024/02/14 04:38:16;;;;;;;17.83;10.95;;;;;;;-145.63;54.26;38777.84;5031440;28;20036;-63
2024/02/14 04:40:42;;;;;;;16.90;10.30;;;;;;;-145.63;53.98;38756.34;5021307;28;20129;-63
2024/02/14 04:43:08;;;;;;;16.52;10.40;;;;;;;-145.63;54.28;38754.38;5040447;28;20501;-64
2024/02/14 04:45:35;;;;;;;15.45;10.70;;;;;;;-145.63;54.09;38805.22;5036355;28;20041;-63
2024/02/14 04:48:09;;;;;;;16.38;11.15;;;;;;;-145.63;54.04;38740.69;5027638;28;20517;-61
2024/02/14 04:50:35;;;;;;;14.85;10.25;;;;;;;-145.63;54.05;38748.50;5036401;28;20042;-63
2024/02/14 04:53:01;;;;;;;15.35;10.25;;;;;;;-145.63;54.03;38775.91;5036546;28;20044;-64
2024/02/14 04:55:28;;;;;;;15.02;10.70;;;;;;;-145.63;54.04;38760.25;5020627;28;20045;-64
2024/02/14 04:57:54;;;;;;;14.32;10.57;;;;;;;-145.63;53.73;38781.75;5027294;28;20112;-64
2024/02/14 05:00:20;;;;;;;17.73;9.60;;;;;;;-145.63;54.15;38752.44;5035946;28;20109;-64
2024/02/14 05:02:46;;;;;;;14.68;9.35;;;;;;;-145.63;54.12;38709.41;5032852;28;20428;-65
2024/02/14 05:05:12;;;;;;;14.15;9.95;;;;;;;-145.63;54.15;38715.28;5036324;28;20116;-64
2024/02/14 05:07:55;;;;;;;15.52;10.20;;;;;;;-145.63;53.95;38813.03;5021436;28;20037;-67
2024/02/14 05:10:21;;;;;;;16.17;9.05;;;;;;;-145.63;53.62;38695.72;5048377;28;20037;-64
2024/02/14 05:12:47;;;;;;;18.77;10.05;;;;;;;-145.63;53.54;38740.69;5039481;28;20500;-64
2024/02/14 05:15:18;;;;;;;15.02;10.13;;;;;;;-145.63;54.38;38719.19;5028414;28;20029;-64
2024/02/14 05:17:45;;;;;;;16.92;10.77;;;;;;;-145.63;53.57;38699.63;5054670;28;20428;-64
2024/02/14 05:20:11;;;;;;;17.52;10.57;;;;;;;-145.63;52.77;38719.19;5055859;28;20037;-64
2024/02/14 05:22:43;;;;;;;16.45;10.90;;;;;;;-145.63;52.94;38746.56;5056067;28;20458;-63
2024/02/14 05:25:09;;;;;;;19.45;11.43;;;;;;;-145.63;53.09;38705.50;5042232;28;20037;-63
2024/02/14 05:27:49;;;;;;;15.17;9.60;;;;;;;-145.63;53.71;38680.06;5024953;28;20041;-63
2024/02/14 05:30:15;;;;;;;14.88;10.00;;;;;;;-145.63;53.55;38711.38;5022242;28;20021;-67
2024/02/14 05:32:54;;;;;;;17.60;10.68;;;;;;;-145.63;53.61;38721.13;5039504;28;20047;-64
2024/02/14 05:35:20;;;;;;;15.02;9.82;;;;;;;-145.63;53.11;38734.81;5054779;28;20033;-65
2024/02/14 05:37:49;;;;;;;14.95;9.05;;;;;;;-145.63;53.34;38701.59;5036589;28;20084;-63
2024/02/14 05:40:15;;;;;;;13.48;9.23;;;;;;;-145.63;53.26;38723.09;5021509;28;20065;-63
2024/02/14 05:42:45;;;;;;;16.17;9.60;;;;;;;-145.63;53.19;38709.41;5025043;28;20034;-68
2024/02/14 05:45:11;;;;;;;16.45;10.15;;;;;;;-145.63;53.36;38689.84;5016942;28;20478;-63
2024/02/14 05:47:39;;;;;;;15.57;10.40;;;;;;;-145.63;53.33;38715.28;5034729;28;20168;-63
2024/02/14 05:50:05;;;;;;;15.10;9.40;;;;;;;-145.63;53.50;38682.03;5022893;28;20033;-63
2024/02/14 05:52:33;;;;;;;15.75;9.57;;;;;;;-145.63;53.35;38678.13;5035581;28;20041;-64
2024/02/14 05:54:59;;;;;;;14.38;10.13;;;;;;;-145.63;52.92;38703.53;5023497;28;20129;-65
2024/02/14 05:57:25;;;;;;;16.10;10.55;;;;;;;-145.63;52.77;38701.59;5022899;28;20032;-64
2024/02/14 05:59:51;;;;;;;15.73;10.55;;;;;;;-145.63;52.95;38684.00;5032423;28;20044;-62
2024/02/14 06:02:16;;;;;;;15.38;9.85;;;;;;;-145.63;52.88;38721.13;5015391;28;20026;-68
2024/02/14 06:04:42;;;;;;;13.15;9.65;;;;;;;-145.63;52.70;38713.31;5032973;28;20367;-64
2024/02/14 06:07:11;;;;;;;17.23;9.95;;;;;;;-145.63;52.86;38333.97;5035741;28;20033;-64
2024/02/14 06:09:36;;;;;;;13.75;8.52;;;;;;;-145.63;52.79;38699.63;5026304;28;20034;-64
2024/02/14 06:12:03;;;;;;;13.00;9.05;;;;;;;-145.63;52.55;38693.75;5051138;28;20103;-63
2024/02/14 06:14:30;;;;;;;13.55;8.93;;;;;;;-145.63;53.00;38699.63;5036112;28;20033;-64
2024/02/14 06:16:56;;;;;;;17.05;10.35;;;;;;;-145.63;53.03;38687.91;5015764;28;20121;-68
2024/02/14 06:19:23;;;;;;;14.45;9.13;;;;;;;-145.63;52.35;38709.41;5030631;28;20030;-64
2024/02/14 06:21:49;;;;;;;14.32;9.40;;;;;;;-145.63;52.59;38672.25;5028944;28;20084;-63
2024/02/14 06:24:18;;;;;;;14.15;9.13;;;;;;;-145.63;53.04;38676.16;5030777;28;20065;-63
2024/02/14 06:26:45;;;;;;;13.05;9.13;;;;;;;-145.63;52.76;38699.63;5036336;28;20096;-65
2024/02/14 06:29:11;;;;;;;12.93;8.75;;;;;;;-145.63;52.52;38695.72;5054459;28;20029;-66
2024/02/14 06:31:37;;;;;;;12.55;8.88;;;;;;;-145.63;53.07;38656.59;5037269;28;20476;-67
2024/02/14 06:34:02;;;;;;;14.98;9.27;;;;;;;-145.63;53.14;38684.00;5022198;28;20038;-66
2024/02/14 06:36:28;;;;;;;15.85;9.65;;;;;;;-145.63;52.97;38725.06;5022042;28;20066;-64
2024/02/14 06:38:54;;;;;;;13.18;9.05;;;;;;;-145.63;52.57;38703.53;5031740;28;20439;-63
2024/02/14 06:41:29;;;;;;;17.50;9.20;;;;;;;-145.63;52.46;38678.13;5014830;28;20446;-66
2024/02/14 06:43:55;;;;;;;13.98;8.57;;;;;;;-145.63;52.53;38685.94;5033426;28;20100;-67
2024/02/14 06:46:20;;;;;;;12.93;9.18;;;;;;;-145.63;52.02;38740.69;5018925;28;20118;-64
2024/02/14 06:48:49;;;;;;;11.63;8.52;;;;;;;-145.63;52.31;38684.00;5034338;28;20029;-63
2024/02/14 06:51:17;;;;;;;13.90;8.23;;;;;;;-145.63;52.38;38687.91;5031843;28;20041;-66
2024/02/14 06:53:42;;;;;;;18.35;8.45;;;;;;;-145.63;52.06;38697.69;5013955;28;20364;-64
2024/02/14 06:56:08;;;;;;;15.32;9.13;;;;;;;-145.63;52.07;38680.06;5014376;28;20045;-64
2024/02/14 06:58:34;;;;;;;15.15;8.43;;;;;;;-145.63;52.03;38699.63;5030483;28;20091;-63
2024/02/14 07:01:03;;;;;;;14.68;8.75;;;;;;;-145.63;51.94;38699.63;5022171;28;20092;-63
2024/02/14 07:03:29;;;;;;;13.52;8.10;;;;;;;-145.63;51.99;38701.59;5021844;28;20116;-64
2024/02/14 07:05:54;;;;;;;14.73;8.43;;;;;;;-145.63;51.92;38711.38;5034345;28;20441;-63
2024/02/14 07:08:20;;;;;;;14.02;7.63;;;;;;;-145.63;51.82;38670.28;5034697;28;20383;-63
2024/02/14 07:10:45;;;;;;;12.50;8.38;;;;;;;-145.63;52.35;38693.75;5026663;28;20042;-63
2024/02/14 07:13:11;;;;;;;13.93;9.13;;;;;;;-145.63;51.87;38695.72;5021218;28;20034;-64
2024/02/14 07:15:37;;;;;;;16.20;9.25;;;;;;;-145.63;51.58;38738.75;5022232;28;20363;-63
2024/02/14 07:18:03;;;;;;;14.02;8.70;;;;;;;-145.63;51.39;38703.53;5029712;28;20386;-64
2024/02/14 07:20:30;;;;;;;14.32;8.05;;;;;;;-145.63;51.65;38689.84;5014315;28;20080;-64
2024/02/14 07:22:56;;;;;;;13.40;8.45;;;;;;;-145.63;51.51;38727.00;5032842;28;20033;-64
2024/02/14 07:25:22;;;;;;;14.05;8.15;;;;;;;-145.63;51.06;38586.22;5030256;28;20053;-65
2024/02/14 07:27:49;;;;;;;11.00;7.65;;;;;;;-145.63;50.99;38715.28;5034008;28;20087;-65
2024/02/14 07:30:16;;;;;;;11.35;7.43;;;;;;;-145.63;51.39;38635.09;5028417;28;20464;-64
2024/02/14 07:32:46;;;;;;;12.05;7.47;;;;;;;-145.63;50.32;38549.06;5014422;28;20045;-63
2024/02/14 07:35:16;;;;;;;12.50;7.22;;;;;;;-145.63;49.47;38308.56;5033380;28;20390;-64
2024/02/14 07:37:42;;;;;;;9.80;6.60;;;;;;;-145.63;49.44;38590.13;5016967;28;20030;-64
2024/02/14 07:40:08;;;;;;;10.85;7.07;;;;;;;-145.63;49.61;38721.13;5025666;28;20029;-64
2024/02/14 07:42:53;;;;;;;10.55;6.60;;;;;;;-145.63;49.71;38631.19;5022922;28;20045;-63
2024/02/14 07:45:19;;;;;;;10.23;6.63;;;;;;;-145.63;49.76;38554.94;5024232;28;20029;-64
2024/02/14 07:47:45;;;;;;;9.98;6.40;;;;;;;-145.63;48.63;38537.34;5032556;28;20033;-65
2024/02/14 07:50:11;;;;;;;10.10;6.40;;;;;;;-145.63;48.58;38601.84;5021485;28;20076;-64
2024/02/14 07:52:37;;;;;;;8.00;5.03;;;;;;;-145.63;48.50;38549.06;5017521;28;20042;-64
2024/02/14 07:55:02;;;;;;;9.73;5.97;;;;;;;-145.63;48.81;38578.41;5030540;28;20033;-64
2024/02/14 07:57:31;;;;;;;11.15;6.57;;;;;;;-145.63;49.25;38609.69;5033069;28;20061;-63
2024/02/14 07:59:56;;;;;;;11.38;6.43;;;;;;;-145.63;49.40;38635.09;5030622;28;20080;-65
2024/02/14 08:02:22;;;;;;;10.70;6.97;;;;;;;-145.63;49.14;38646.84;5013612;28;20503;-64
2024/02/14 08:04:47;;;;;;;9.07;6.55;;;;;;;-145.63;48.64;38664.44;5030241;28;20539;-65
2024/02/14 08:07:13;;;;;;;10.10;6.22;;;;;;;-145.63;48.85;38672.25;5032628;28;20049;-63
2024/02/14 08:09:40;;;;;;;10.50;6.85;;;;;;;-145.63;49.10;38707.44;5024738;28;20058;-62
2024/02/14 08:12:06;;;;;;;12.73;6.47;;;;;;;-145.63;48.89;38719.19;5016231;28;20041;-64
2024/02/14 08:14:32;;;;;;;14.50;7.28;;;;;;;-145.63;48.27;38672.25;5032487;28;20042;-66
2024/02/14 08:16:58;;;;;;;13.32;7.43;;;;;;;-145.63;48.19;38648.78;5027030;28;20125;-66
2024/02/14 08:19:23;;;;;;;11.10;7.40;;;;;;;-145.63;47.47;38707.44;5032655;28;20029;-63
2024/02/14 08:21:49;;;;;;;10.82;6.00;;;;;;;-145.63;47.27;38668.34;5023529;28;20028;-68
2024/02/14 08:24:15;;;;;;;11.30;6.90;;;;;;;-145.63;47.66;38672.25;5017513;28;20100;-65
2024/02/14 08:26:40;;;;;;;10.43;6.40;;;;;;;-145.63;47.20;38685.94;5032899;28;20384;-65
2024/02/14 08:29:06;;;;;;;10.30;6.45;;;;;;;-145.63;47.56;38748.50;5012872;28;20426;-65
2024/02/14 08:31:33;;;;;;;10.82;6.25;;;;;;;-145.63;47.20;38727.00;5027557;28;20053;-66
2024/02/14 08:33:58;;;;;;;9.65;6.82;;;;;;;-145.63;48.10;38725.06;5043328;28;20153;-64
2024/02/14 08:36:24;;;;;;;11.43;6.22;;;;;;;-145.63;47.88;38738.75;5046619;28;20519;-64
2024/02/14 08:38:50;;;;;;;10.82;6.05;;;;;;;-145.63;48.14;38758.28;5031514;28;20021;-63
2024/02/14 08:41:18;;;;;;;11.23;6.28;;;;;;;-145.63;47.95;38736.78;5013197;28;20546;-64
2024/02/14 08:43:44;;;;;;;18.90;8.07;;;;;;;-145.63;48.31;38773.94;5029666;28;20061;-66
2024/02/14 08:46:13;;;;;;;12.05;7.25;;;;;;;-145.63;48.70;38750.47;5044703;28;20118;-67
2024/02/14 08:48:45;;;;;;;12.93;7.13;;;;;;;-145.63;48.25;38760.25;5052502;28;20093;-63
2024/02/14 08:51:12;;;;;;;10.73;6.72;;;;;;;-145.63;48.17;38773.94;5035247;28;20038;-63
2024/02/14 08:53:38;;;;;;;10.73;6.90;;;;;;;-145.63;48.00;38742.66;5032773;28;20040;-65
2024/02/14 08:56:04;;;;;;;9.13;4.38;;;;;;;-145.63;48.22;38713.31;5015078;28;20030;-62
2024/02/14 08:58:30;;;;;;;12.73;6.18;;;;;;;-145.63;47.78;38742.66;5029703;28;20036;-65
2024/02/14 09:00:56;;;;;;;15.15;7.28;;;;;;;-145.63;47.29;38748.50;5024941;28;20029;-63
2024/02/14 09:03:21;;;;;;;10.93;6.78;;;;;;;-145.63;47.53;38727.00;5018230;28;20033;-63
2024/02/14 09:05:47;;;;;;;8.32;5.75;;;;;;;-145.63;47.29;38766.13;5033067;28;20346;-63
2024/02/14 09:08:13;;;;;;;11.48;7.60;;;;;;;-145.63;48.64;38752.44;5052602;28;20382;-63
2024/02/14 09:10:39;;;;;;;12.73;6.90;;;;;;;-145.63;47.54;38728.97;5036729;28;20075;-63
2024/02/14 09:13:07;;;;;;;8.13;4.93;;;;;;;-145.63;47.07;38752.44;5032001;28;20079;-63
2024/02/14 09:15:32;;;;;;;10.60;6.68;;;;;;;-145.63;47.72;38785.66;5031988;28;20104;-62
2024/02/14 09:18:00;;;;;;;10.98;6.03;;;;;;;-145.63;47.63;38727.00;5034207;28;20116;-65
2024/02/14 09:20:25;;;;;;;10.32;5.97;;;;;;;-145.63;47.68;38773.94;5016104;28;20098;-63
2024/02/14 09:22:53;;;;;;;11.23;6.57;;;;;;;-145.63;48.18;38738.75;5050311;28;20036;-65
2024/02/14 09:25:19;;;;;;;11.18;6.80;;;;;;;-145.63;47.89;38775.91;5043061;28;20102;-63
2024/02/14 09:27:47;;;;;;;11.88;6.97;;;;;;;-145.63;47.78;38795.44;5027613;28;20033;-64
2024/02/14 09:30:13;;;;;;;12.68;6.07;;;;;;;-145.63;47.24;38760.25;5020083;28;20064;-63
2024/02/14 09:32:38;;;;;;;9.93;5.60;;;;;;;-145.63;48.27;38766.13;5035912;28;20061;-65
2024/02/14 09:35:06;;;;;;;10.63;5.45;;;;;;;-145.63;47.78;38775.91;5035275;28;20561;-63
2024/02/14 09:37:32;;;;;;;11.18;6.32;;;;;;;-145.63;48.27;38795.44;5021266;28;20025;-63
2024/02/14 09:39:58;;;;;;;13.95;6.53;;;;;;;-145.63;48.30;38791.53;5025486;28;20471;-67
2024/02/14 09:42:47;;;;;;;11.52;5.68;;;;;;;-145.63;48.20;38754.38;5035495;28;20040;-64
2024/02/14 09:45:14;;;;;;;9.13;5.55;;;;;;;-145.63;48.40;38793.50;5031773;28;20061;-63
2024/02/14 09:47:41;;;;;;;9.45;5.82;;;;;;;-145.63;48.58;38766.13;5033860;28;20029;-64
2024/02/14 09:50:08;;;;;;;8.85;5.05;;;;;;;-145.63;48.01;38752.44;5047049;28;20049;-63
2024/02/14 09:52:34;;;;;;;10.52;6.00;;;;;;;-145.63;48.41;38762.22;5020701;28;20034;-65
2024/02/14 09:55:02;;;;;;;8.38;5.43;;;;;;;-145.63;48.50;38770.03;5015891;28;20480;-63
2024/02/14 09:57:29;;;;;;;11.15;6.90;;;;;;;-145.63;48.69;38807.19;5033863;28;20041;-65
2024/02/14 09:59:56;;;;;;;10.73;6.72;;;;;;;-145.63;48.78;38754.38;5016653;28;20030;-65
2024/02/14 10:02:22;;;;;;;11.02;5.53;;;;;;;-145.63;48.24;38762.22;5033853;28;20039;-64
2024/02/14 10:04:48;;;;;;;10.77;6.55;;;;;;;-145.63;49.04;38801.31;5034278;28;20033;-63
2024/02/14 10:07:14;;;;;;;9.65;6.22;;;;;;;-145.63;48.14;38822.81;5035600;28;20037;-63
2024/02/14 10:09:41;;;;;;;11.45;6.00;;;;;;;-145.63;48.18;38682.03;5026478;28;20041;-63
2024/02/14 10:12:10;;;;;;;13.57;7.43;;;;;;;-145.63;48.58;38750.47;5026864;28;20030;-64
2024/02/14 10:14:37;;;;;;;12.68;7.25;;;;;;;-145.63;48.79;38828.69;5028343;28;20036;-64
2024/02/14 10:17:04;;;;;;;11.20;6.82;;;;;;;-145.63;48.47;38783.72;5029359;28;20032;-63
2024/02/14 10:19:30;;;;;;;10.30;6.72;;;;;;;-145.63;48.46;38791.53;5028033;28;20099;-64
2024/02/14 10:22:01;;;;;;;12.10;6.53;;;;;;;-145.63;48.85;38801.31;5030763;28;20486;-62
2024/02/14 10:24:28;;;;;;;10.55;6.72;;;;;;;-145.63;48.72;38805.22;5030490;28;20037;-64
2024/02/14 10:26:57;;;;;;;11.02;7.13;;;;;;;-145.63;49.14;38838.47;5031374;28;20482;-65
2024/02/14 10:29:24;;;;;;;10.93;6.28;;;;;;;-145.63;49.15;38799.34;5020154;28;20075;-63
2024/02/14 10:31:50;;;;;;;9.85;6.45;;;;;;;-145.63;49.00;38803.28;5033351;28;20072;-62
2024/02/14 10:34:18;;;;;;;9.23;5.05;;;;;;;-145.63;48.93;38781.75;5031934;28;20087;-63
2024/02/14 10:36:44;;;;;;;9.15;6.22;;;;;;;-145.63;49.55;38811.09;5032048;28;20067;-63
2024/02/14 10:39:15;;;;;;;10.63;6.32;;;;;;;-145.63;49.33;38836.50;5032595;28;20041;-63
2024/02/14 10:41:41;;;;;;;12.02;6.95;;;;;;;-145.63;48.90;38850.19;5033054;28;20037;-63
2024/02/14 10:44:07;;;;;;;8.52;5.68;;;;;;;-145.63;48.75;38809.13;5034797;28;20467;-64
2024/02/14 10:46:37;;;;;;;10.05;6.07;;;;;;;-145.63;48.98;38783.72;5034719;28;20200;-63
2024/02/14 10:49:07;;;;;;;13.50;6.47;;;;;;;-145.63;48.54;38797.41;5029039;28;20033;-63
2024/02/14 10:51:35;;;;;;;9.98;6.10;;;;;;;-145.63;49.09;38828.69;5033548;28;20153;-62
2024/02/14 10:54:12;;;;;;;8.95;5.78;;;;;;;-145.63;48.68;38832.59;5030746;28;20032;-63
2024/02/14 10:56:42;;;;;;;10.80;5.90;;;;;;;-145.63;49.02;38797.41;5024241;28;20040;-62
2024/02/14 10:59:10;;;;;;;9.82;5.45;;;;;;;-145.63;49.18;38815.00;5032013;28;20061;-63
2024/02/14 11:01:37;;;;;;;10.20;6.53;;;;;;;-145.63;49.08;38813.03;5028174;28;20371;-63
2024/02/14 11:04:04;;;;;;;12.77;6.93;;;;;;;-145.63;48.82;38859.97;5024532;28;20099;-63
2024/02/14 11:06:31;;;;;;;10.73;6.47;;;;;;;-145.63;48.52;38846.28;5033948;28;20107;-64
2024/02/14 11:09:00;;;;;;;5.78;3.40;;;;;;;-145.63;48.08;38815.00;5033264;28;20032;-64
2024/02/14 11:11:30;;;;;;;10.05;6.68;;;;;;;-145.63;49.34;38805.22;5028488;28;20029;-63
2024/02/14 11:13:57;;;;;;;12.13;7.32;;;;;;;-145.63;49.30;38861.94;5033629;28;20064;-64